sensor_id;sensor_type;location;lat;lon;timestamp;P1;durP1;ratioP1;P2;durP2;ratioP2
80748;SDS011;70145;53.746;9.970;2023-07-31T00:01:44;3.20;;;1.70;;
80748;SDS011;70145;53.746;9.970;2023-07-31T00:04:09;2.87;;;1.00;;
80748;SDS011;70145;53.746;9.970;2023-07-31T00:06:35;4.45;;;1.38;;
80748;SDS011;70145;53.746;9.970;2023-07-31T00:09:00;3.03;;;1.30;;
80748;SDS011;70145;53.746;9.970;2023-07-31T00:11:25;3.47;;;0.90;;
80748;SDS011;70145;53.746;9.970;2023-07-31T00:13:52;4.45;;;1.52;;
80748;SDS011;70145;53.746;9.970;2023-07-31T00:16:18;2.65;;;1.50;;
80748;SDS011;70145;53.746;9.970;2023-07-31T00:18:43;2.08;;;0.90;;
80748;SDS011;70145;53.746;9.970;2023-07-31T00:21:09;3.40;;;1.37;;
80748;SDS011;70145;53.746;9.970;2023-07-31T00:23:34;3.05;;;0.90;;
80748;SDS011;70145;53.746;9.970;2023-07-31T00:25:59;1.17;;;0.70;;
80748;SDS011;70145;53.746;9.970;2023-07-31T00:28:24;4.67;;;0.90;;
80748;SDS011;70145;53.746;9.970;2023-07-31T00:30:50;4.60;;;2.47;;
80748;SDS011;70145;53.746;9.970;2023-07-31T00:33:15;3.55;;;1.10;;
80748;SDS011;70145;53.746;9.970;2023-07-31T00:35:40;3.20;;;1.10;;
80748;SDS011;70145;53.746;9.970;2023-07-31T00:38:05;3.23;;;0.70;;
80748;SDS011;70145;53.746;9.970;2023-07-31T00:40:34;4.43;;;1.20;;
80748;SDS011;70145;53.746;9.970;2023-07-31T00:43:01;2.38;;;1.10;;
80748;SDS011;70145;53.746;9.970;2023-07-31T00:45:26;2.37;;;1.07;;
80748;SDS011;70145;53.746;9.970;2023-07-31T00:47:53;2.20;;;1.33;;
80748;SDS011;70145;53.746;9.970;2023-07-31T00:50:18;3.85;;;1.65;;
80748;SDS011;70145;53.746;9.970;2023-07-31T00:52:44;2.22;;;1.23;;
80748;SDS011;70145;53.746;9.970;2023-07-31T00:55:09;3.35;;;1.20;;
80748;SDS011;70145;53.746;9.970;2023-07-31T00:57:35;4.75;;;1.52;;
80748;SDS011;70145;53.746;9.970;2023-07-31T01:00:02;3.13;;;1.10;;
80748;SDS011;70145;53.746;9.970;2023-07-31T01:02:28;4.05;;;1.30;;
80748;SDS011;70145;53.746;9.970;2023-07-31T01:04:54;3.65;;;1.55;;
80748;SDS011;70145;53.746;9.970;2023-07-31T01:10:29;3.25;;;1.00;;
80748;SDS011;70145;53.746;9.970;2023-07-31T01:12:56;4.88;;;1.15;;
80748;SDS011;70145;53.746;9.970;2023-07-31T01:15:21;2.72;;;0.90;;
80748;SDS011;70145;53.746;9.970;2023-07-31T01:17:47;2.60;;;0.87;;
80748;SDS011;70145;53.746;9.970;2023-07-31T01:20:13;2.53;;;1.00;;
80748;SDS011;70145;53.746;9.970;2023-07-31T01:25:42;3.03;;;0.98;;
80748;SDS011;70145;53.746;9.970;2023-07-31T01:31:24;3.67;;;1.13;;
80748;SDS011;70145;53.746;9.970;2023-07-31T01:33:51;1.80;;;0.90;;
80748;SDS011;70145;53.746;9.970;2023-07-31T01:36:18;3.53;;;1.13;;
80748;SDS011;70145;53.746;9.970;2023-07-31T01:38:44;3.92;;;1.30;;
80748;SDS011;70145;53.746;9.970;2023-07-31T01:41:09;4.23;;;0.90;;
80748;SDS011;70145;53.746;9.970;2023-07-31T01:43:35;3.65;;;1.17;;
80748;SDS011;70145;53.746;9.970;2023-07-31T01:46:00;6.73;;;1.33;;
80748;SDS011;70145;53.746;9.970;2023-07-31T01:48:25;5.65;;;1.60;;
80748;SDS011;70145;53.746;9.970;2023-07-31T01:50:51;3.08;;;1.10;;
80748;SDS011;70145;53.746;9.970;2023-07-31T01:53:16;3.25;;;1.20;;
80748;SDS011;70145;53.746;9.970;2023-07-31T01:55:42;9.75;;;1.75;;
80748;SDS011;70145;53.746;9.970;2023-07-31T01:58:07;3.50;;;1.98;;
80748;SDS011;70145;53.746;9.970;2023-07-31T02:00:32;2.07;;;1.40;;
80748;SDS011;70145;53.746;9.970;2023-07-31T02:02:59;3.53;;;1.07;;
80748;SDS011;70145;53.746;9.970;2023-07-31T02:05:24;3.17;;;1.52;;
80748;SDS011;70145;53.746;9.970;2023-07-31T02:07:49;4.57;;;1.83;;
80748;SDS011;70145;53.746;9.970;2023-07-31T02:10:15;2.33;;;1.15;;
80748;SDS011;70145;53.746;9.970;2023-07-31T02:12:40;4.57;;;1.00;;
80748;SDS011;70145;53.746;9.970;2023-07-31T02:15:06;3.13;;;0.97;;
80748;SDS011;70145;53.746;9.970;2023-07-31T02:17:31;2.53;;;1.13;;
80748;SDS011;70145;53.746;9.970;2023-07-31T02:19:57;5.03;;;1.37;;
80748;SDS011;70145;53.746;9.970;2023-07-31T02:22:22;3.73;;;1.20;;
80748;SDS011;70145;53.746;9.970;2023-07-31T02:24:47;4.23;;;1.60;;
80748;SDS011;70145;53.746;9.970;2023-07-31T02:27:12;3.42;;;1.50;;
80748;SDS011;70145;53.746;9.970;2023-07-31T02:29:38;1.70;;;0.97;;
80748;SDS011;70145;53.746;9.970;2023-07-31T02:32:03;4.50;;;1.25;;
80748;SDS011;70145;53.746;9.970;2023-07-31T02:34:28;5.32;;;1.25;;
80748;SDS011;70145;53.746;9.970;2023-07-31T02:36:54;6.32;;;1.52;;
80748;SDS011;70145;53.746;9.970;2023-07-31T02:39:19;6.07;;;1.97;;
80748;SDS011;70145;53.746;9.970;2023-07-31T02:41:44;2.93;;;1.33;;
80748;SDS011;70145;53.746;9.970;2023-07-31T02:44:10;5.55;;;1.20;;
80748;SDS011;70145;53.746;9.970;2023-07-31T02:46:37;3.60;;;2.35;;
80748;SDS011;70145;53.746;9.970;2023-07-31T02:49:03;2.80;;;1.30;;
80748;SDS011;70145;53.746;9.970;2023-07-31T02:51:28;3.80;;;1.05;;
80748;SDS011;70145;53.746;9.970;2023-07-31T02:53:53;4.27;;;1.70;;
80748;SDS011;70145;53.746;9.970;2023-07-31T02:56:19;3.07;;;1.40;;
80748;SDS011;70145;53.746;9.970;2023-07-31T02:58:44;3.65;;;1.40;;
80748;SDS011;70145;53.746;9.970;2023-07-31T03:01:09;2.67;;;1.70;;
80748;SDS011;70145;53.746;9.970;2023-07-31T03:03:34;2.50;;;1.37;;
80748;SDS011;70145;53.746;9.970;2023-07-31T03:06:00;8.63;;;1.75;;
80748;SDS011;70145;53.746;9.970;2023-07-31T03:08:25;3.97;;;1.73;;
80748;SDS011;70145;53.746;9.970;2023-07-31T03:10:50;3.03;;;1.27;;
80748;SDS011;70145;53.746;9.970;2023-07-31T03:13:15;1.97;;;1.17;;
80748;SDS011;70145;53.746;9.970;2023-07-31T03:15:44;4.00;;;1.70;;
80748;SDS011;70145;53.746;9.970;2023-07-31T03:18:09;4.07;;;1.35;;
80748;SDS011;70145;53.746;9.970;2023-07-31T03:20:35;3.00;;;1.42;;
80748;SDS011;70145;53.746;9.970;2023-07-31T03:23:01;2.72;;;1.63;;
80748;SDS011;70145;53.746;9.970;2023-07-31T03:25:27;3.28;;;1.33;;
80748;SDS011;70145;53.746;9.970;2023-07-31T03:27:52;3.80;;;1.60;;
80748;SDS011;70145;53.746;9.970;2023-07-31T03:30:18;3.30;;;1.40;;
80748;SDS011;70145;53.746;9.970;2023-07-31T03:32:43;2.92;;;1.23;;
80748;SDS011;70145;53.746;9.970;2023-07-31T03:35:08;1.80;;;0.98;;
80748;SDS011;70145;53.746;9.970;2023-07-31T03:37:34;2.13;;;1.27;;
80748;SDS011;70145;53.746;9.970;2023-07-31T03:39:59;3.50;;;1.33;;
80748;SDS011;70145;53.746;9.970;2023-07-31T03:42:24;4.43;;;1.80;;
80748;SDS011;70145;53.746;9.970;2023-07-31T03:44:50;4.47;;;1.80;;
80748;SDS011;70145;53.746;9.970;2023-07-31T03:47:15;4.60;;;2.03;;
80748;SDS011;70145;53.746;9.970;2023-07-31T03:49:40;3.50;;;1.58;;
80748;SDS011;70145;53.746;9.970;2023-07-31T03:52:06;2.47;;;1.03;;
80748;SDS011;70145;53.746;9.970;2023-07-31T03:54:31;3.85;;;1.50;;
80748;SDS011;70145;53.746;9.970;2023-07-31T03:56:56;1.40;;;1.30;;
80748;SDS011;70145;53.746;9.970;2023-07-31T03:59:22;3.43;;;1.13;;
80748;SDS011;70145;53.746;9.970;2023-07-31T04:01:47;3.58;;;2.08;;
80748;SDS011;70145;53.746;9.970;2023-07-31T04:04:12;3.60;;;1.10;;
80748;SDS011;70145;53.746;9.970;2023-07-31T04:06:37;2.77;;;1.40;;
80748;SDS011;70145;53.746;9.970;2023-07-31T04:09:03;2.90;;;1.33;;
80748;SDS011;70145;53.746;9.970;2023-07-31T04:11:28;3.00;;;1.63;;
80748;SDS011;70145;53.746;9.970;2023-07-31T04:13:53;5.73;;;1.50;;
80748;SDS011;70145;53.746;9.970;2023-07-31T04:16:19;6.93;;;2.25;;
80748;SDS011;70145;53.746;9.970;2023-07-31T04:18:44;2.33;;;1.70;;
80748;SDS011;70145;53.746;9.970;2023-07-31T04:21:09;2.33;;;1.13;;
80748;SDS011;70145;53.746;9.970;2023-07-31T04:23:36;4.47;;;1.50;;
80748;SDS011;70145;53.746;9.970;2023-07-31T04:26:01;3.17;;;1.83;;
80748;SDS011;70145;53.746;9.970;2023-07-31T04:28:27;3.90;;;2.22;;
80748;SDS011;70145;53.746;9.970;2023-07-31T04:30:52;4.20;;;1.60;;
80748;SDS011;70145;53.746;9.970;2023-07-31T04:33:18;3.05;;;1.75;;
80748;SDS011;70145;53.746;9.970;2023-07-31T04:35:48;4.03;;;1.83;;
80748;SDS011;70145;53.746;9.970;2023-07-31T04:38:17;2.72;;;1.90;;
80748;SDS011;70145;53.746;9.970;2023-07-31T04:40:42;2.85;;;1.83;;
80748;SDS011;70145;53.746;9.970;2023-07-31T04:43:08;2.10;;;1.60;;
80748;SDS011;70145;53.746;9.970;2023-07-31T04:45:33;3.45;;;2.17;;
80748;SDS011;70145;53.746;9.970;2023-07-31T04:47:58;2.70;;;2.10;;
80748;SDS011;70145;53.746;9.970;2023-07-31T04:50:24;2.90;;;1.63;;
80748;SDS011;70145;53.746;9.970;2023-07-31T04:52:49;4.03;;;2.20;;
80748;SDS011;70145;53.746;9.970;2023-07-31T04:55:14;3.83;;;2.10;;
80748;SDS011;70145;53.746;9.970;2023-07-31T04:57:40;3.03;;;1.80;;
80748;SDS011;70145;53.746;9.970;2023-07-31T05:00:05;2.03;;;1.53;;
80748;SDS011;70145;53.746;9.970;2023-07-31T05:02:31;4.18;;;2.13;;
80748;SDS011;70145;53.746;9.970;2023-07-31T05:04:56;3.17;;;1.57;;
80748;SDS011;70145;53.746;9.970;2023-07-31T05:07:22;2.78;;;1.70;;
80748;SDS011;70145;53.746;9.970;2023-07-31T05:09:47;2.28;;;1.75;;
80748;SDS011;70145;53.746;9.970;2023-07-31T05:12:13;2.17;;;1.70;;
80748;SDS011;70145;53.746;9.970;2023-07-31T05:14:38;2.92;;;1.70;;
80748;SDS011;70145;53.746;9.970;2023-07-31T05:17:03;2.60;;;2.00;;
80748;SDS011;70145;53.746;9.970;2023-07-31T05:19:29;2.17;;;1.58;;
80748;SDS011;70145;53.746;9.970;2023-07-31T05:21:54;1.98;;;1.70;;
80748;SDS011;70145;53.746;9.970;2023-07-31T05:24:19;2.47;;;1.57;;
80748;SDS011;70145;53.746;9.970;2023-07-31T05:26:45;2.53;;;1.73;;
80748;SDS011;70145;53.746;9.970;2023-07-31T05:29:10;2.85;;;2.10;;
80748;SDS011;70145;53.746;9.970;2023-07-31T05:31:35;1.67;;;1.57;;
80748;SDS011;70145;53.746;9.970;2023-07-31T05:34:00;2.20;;;2.00;;
80748;SDS011;70145;53.746;9.970;2023-07-31T05:36:26;2.00;;;1.50;;
80748;SDS011;70145;53.746;9.970;2023-07-31T05:38:51;2.33;;;1.53;;
80748;SDS011;70145;53.746;9.970;2023-07-31T05:41:16;1.80;;;1.45;;
80748;SDS011;70145;53.746;9.970;2023-07-31T05:43:43;2.30;;;1.42;;
80748;SDS011;70145;53.746;9.970;2023-07-31T05:46:09;1.48;;;1.30;;
80748;SDS011;70145;53.746;9.970;2023-07-31T05:48:34;1.92;;;1.83;;
80748;SDS011;70145;53.746;9.970;2023-07-31T05:51:00;1.73;;;1.40;;
80748;SDS011;70145;53.746;9.970;2023-07-31T05:53:25;1.75;;;1.35;;
80748;SDS011;70145;53.746;9.970;2023-07-31T05:55:50;2.15;;;1.85;;
80748;SDS011;70145;53.746;9.970;2023-07-31T05:58:16;1.40;;;1.30;;
80748;SDS011;70145;53.746;9.970;2023-07-31T06:00:41;1.73;;;1.63;;
80748;SDS011;70145;53.746;9.970;2023-07-31T06:03:06;1.50;;;1.40;;
80748;SDS011;70145;53.746;9.970;2023-07-31T06:05:32;1.40;;;1.20;;
80748;SDS011;70145;53.746;9.970;2023-07-31T06:07:57;1.80;;;1.00;;
80748;SDS011;70145;53.746;9.970;2023-07-31T06:10:22;1.38;;;1.13;;
80748;SDS011;70145;53.746;9.970;2023-07-31T06:12:48;2.17;;;1.70;;
80748;SDS011;70145;53.746;9.970;2023-07-31T06:15:13;1.42;;;1.27;;
80748;SDS011;70145;53.746;9.970;2023-07-31T06:17:38;2.13;;;1.27;;
80748;SDS011;70145;53.746;9.970;2023-07-31T06:20:04;2.17;;;1.80;;
80748;SDS011;70145;53.746;9.970;2023-07-31T06:22:31;1.92;;;1.10;;
80748;SDS011;70145;53.746;9.970;2023-07-31T06:24:56;1.50;;;1.40;;
80748;SDS011;70145;53.746;9.970;2023-07-31T06:27:22;1.80;;;1.35;;
80748;SDS011;70145;53.746;9.970;2023-07-31T06:29:47;2.03;;;1.60;;
80748;SDS011;70145;53.746;9.970;2023-07-31T06:32:13;1.65;;;1.55;;
80748;SDS011;70145;53.746;9.970;2023-07-31T06:34:38;2.03;;;1.15;;
80748;SDS011;70145;53.746;9.970;2023-07-31T06:37:04;2.70;;;1.33;;
80748;SDS011;70145;53.746;9.970;2023-07-31T06:39:29;1.50;;;1.40;;
80748;SDS011;70145;53.746;9.970;2023-07-31T06:41:55;1.40;;;1.30;;
80748;SDS011;70145;53.746;9.970;2023-07-31T06:44:20;2.35;;;1.10;;
80748;SDS011;70145;53.746;9.970;2023-07-31T06:46:45;1.07;;;0.90;;
80748;SDS011;70145;53.746;9.970;2023-07-31T06:49:11;1.17;;;0.87;;
80748;SDS011;70145;53.746;9.970;2023-07-31T06:51:36;1.10;;;1.00;;
80748;SDS011;70145;53.746;9.970;2023-07-31T06:54:03;2.00;;;1.25;;
80748;SDS011;70145;53.746;9.970;2023-07-31T06:56:28;1.27;;;1.00;;
80748;SDS011;70145;53.746;9.970;2023-07-31T06:58:53;1.00;;;0.80;;
80748;SDS011;70145;53.746;9.970;2023-07-31T07:01:19;1.23;;;1.13;;
80748;SDS011;70145;53.746;9.970;2023-07-31T07:03:45;1.88;;;1.38;;
80748;SDS011;70145;53.746;9.970;2023-07-31T07:06:10;1.48;;;1.38;;
80748;SDS011;70145;53.746;9.970;2023-07-31T07:08:35;0.80;;;0.60;;
80748;SDS011;70145;53.746;9.970;2023-07-31T07:11:01;0.80;;;0.70;;
80748;SDS011;70145;53.746;9.970;2023-07-31T07:13:26;1.50;;;0.90;;
80748;SDS011;70145;53.746;9.970;2023-07-31T07:15:51;1.13;;;1.00;;
80748;SDS011;70145;53.746;9.970;2023-07-31T07:18:17;1.38;;;0.80;;
80748;SDS011;70145;53.746;9.970;2023-07-31T07:20:46;1.40;;;1.30;;
80748;SDS011;70145;53.746;9.970;2023-07-31T07:23:15;1.60;;;0.85;;
80748;SDS011;70145;53.746;9.970;2023-07-31T07:25:41;1.38;;;1.27;;
80748;SDS011;70145;53.746;9.970;2023-07-31T07:28:07;1.33;;;0.90;;
80748;SDS011;70145;53.746;9.970;2023-07-31T07:30:32;1.60;;;1.40;;
80748;SDS011;70145;53.746;9.970;2023-07-31T07:32:57;1.30;;;1.10;;
80748;SDS011;70145;53.746;9.970;2023-07-31T07:35:23;1.05;;;0.90;;
80748;SDS011;70145;53.746;9.970;2023-07-31T07:37:48;1.33;;;1.05;;
80748;SDS011;70145;53.746;9.970;2023-07-31T07:40:15;1.05;;;0.90;;
80748;SDS011;70145;53.746;9.970;2023-07-31T07:42:40;1.10;;;1.00;;
80748;SDS011;70145;53.746;9.970;2023-07-31T07:45:06;1.60;;;1.50;;
80748;SDS011;70145;53.746;9.970;2023-07-31T07:47:32;0.95;;;0.82;;
80748;SDS011;70145;53.746;9.970;2023-07-31T07:49:57;1.87;;;1.00;;
80748;SDS011;70145;53.746;9.970;2023-07-31T07:52:22;1.17;;;1.08;;
80748;SDS011;70145;53.746;9.970;2023-07-31T07:54:48;1.88;;;1.77;;
80748;SDS011;70145;53.746;9.970;2023-07-31T07:57:13;1.50;;;1.30;;
80748;SDS011;70145;53.746;9.970;2023-07-31T07:59:38;1.07;;;0.93;;
80748;SDS011;70145;53.746;9.970;2023-07-31T08:02:04;0.80;;;0.70;;
80748;SDS011;70145;53.746;9.970;2023-07-31T08:04:29;1.60;;;1.05;;
80748;SDS011;70145;53.746;9.970;2023-07-31T08:06:55;1.00;;;0.80;;
80748;SDS011;70145;53.746;9.970;2023-07-31T08:09:20;1.40;;;1.17;;
80748;SDS011;70145;53.746;9.970;2023-07-31T08:11:45;1.52;;;0.80;;
80748;SDS011;70145;53.746;9.970;2023-07-31T08:14:11;1.30;;;1.20;;
80748;SDS011;70145;53.746;9.970;2023-07-31T08:16:36;0.97;;;0.87;;
80748;SDS011;70145;53.746;9.970;2023-07-31T08:19:01;1.20;;;1.10;;
80748;SDS011;70145;53.746;9.970;2023-07-31T08:21:26;1.60;;;1.10;;
80748;SDS011;70145;53.746;9.970;2023-07-31T08:23:52;1.10;;;0.82;;
80748;SDS011;70145;53.746;9.970;2023-07-31T08:26:18;1.47;;;1.37;;
80748;SDS011;70145;53.746;9.970;2023-07-31T08:28:44;1.02;;;0.82;;
80748;SDS011;70145;53.746;9.970;2023-07-31T08:31:09;1.20;;;1.00;;
80748;SDS011;70145;53.746;9.970;2023-07-31T08:33:35;1.40;;;1.30;;
80748;SDS011;70145;53.746;9.970;2023-07-31T08:36:00;1.50;;;1.40;;
80748;SDS011;70145;53.746;9.970;2023-07-31T08:38:26;1.50;;;1.40;;
80748;SDS011;70145;53.746;9.970;2023-07-31T08:40:52;1.50;;;1.27;;
80748;SDS011;70145;53.746;9.970;2023-07-31T08:43:18;1.10;;;1.00;;
80748;SDS011;70145;53.746;9.970;2023-07-31T08:45:45;1.15;;;1.00;;
80748;SDS011;70145;53.746;9.970;2023-07-31T08:48:12;1.38;;;1.27;;
80748;SDS011;70145;53.746;9.970;2023-07-31T08:50:40;1.27;;;1.17;;
80748;SDS011;70145;53.746;9.970;2023-07-31T08:53:06;0.70;;;0.60;;
80748;SDS011;70145;53.746;9.970;2023-07-31T08:55:32;1.00;;;0.90;;
80748;SDS011;70145;53.746;9.970;2023-07-31T08:57:58;0.85;;;0.85;;
80748;SDS011;70145;53.746;9.970;2023-07-31T09:00:23;1.38;;;1.15;;
80748;SDS011;70145;53.746;9.970;2023-07-31T09:02:55;1.40;;;1.30;;
80748;SDS011;70145;53.746;9.970;2023-07-31T09:05:28;2.00;;;1.35;;
80748;SDS011;70145;53.746;9.970;2023-07-31T09:07:57;1.88;;;0.73;;
80748;SDS011;70145;53.746;9.970;2023-07-31T09:10:23;1.00;;;0.80;;
80748;SDS011;70145;53.746;9.970;2023-07-31T09:12:50;1.10;;;1.00;;
80748;SDS011;70145;53.746;9.970;2023-07-31T09:15:16;1.73;;;0.90;;
80748;SDS011;70145;53.746;9.970;2023-07-31T09:17:41;1.50;;;1.40;;
80748;SDS011;70145;53.746;9.970;2023-07-31T09:20:13;1.10;;;0.80;;
80748;SDS011;70145;53.746;9.970;2023-07-31T09:22:43;1.10;;;0.80;;
80748;SDS011;70145;53.746;9.970;2023-07-31T09:25:17;1.65;;;1.02;;
80748;SDS011;70145;53.746;9.970;2023-07-31T09:27:56;0.80;;;0.80;;
80748;SDS011;70145;53.746;9.970;2023-07-31T09:30:23;0.80;;;0.80;;
80748;SDS011;70145;53.746;9.970;2023-07-31T09:32:49;0.93;;;0.60;;
80748;SDS011;70145;53.746;9.970;2023-07-31T09:37:40;0.80;;;0.50;;
80748;SDS011;70145;53.746;9.970;2023-07-31T09:40:06;0.82;;;0.50;;
80748;SDS011;70145;53.746;9.970;2023-07-31T09:42:32;0.73;;;0.70;;
80748;SDS011;70145;53.746;9.970;2023-07-31T09:45:08;1.15;;;0.52;;
80748;SDS011;70145;53.746;9.970;2023-07-31T09:47:34;0.82;;;0.65;;
80748;SDS011;70145;53.746;9.970;2023-07-31T09:49:59;0.97;;;0.50;;
80748;SDS011;70145;53.746;9.970;2023-07-31T09:52:26;1.03;;;0.80;;
80748;SDS011;70145;53.746;9.970;2023-07-31T09:54:52;0.88;;;0.40;;
80748;SDS011;70145;53.746;9.970;2023-07-31T09:57:17;1.38;;;0.52;;
80748;SDS011;70145;53.746;9.970;2023-07-31T09:59:47;0.80;;;0.60;;
80748;SDS011;70145;53.746;9.970;2023-07-31T10:02:15;0.70;;;0.50;;
80748;SDS011;70145;53.746;9.970;2023-07-31T10:04:44;1.05;;;0.52;;
80748;SDS011;70145;53.746;9.970;2023-07-31T10:07:12;0.98;;;0.75;;
80748;SDS011;70145;53.746;9.970;2023-07-31T10:09:39;1.55;;;0.80;;
80748;SDS011;70145;53.746;9.970;2023-07-31T10:12:05;1.13;;;0.80;;
80748;SDS011;70145;53.746;9.970;2023-07-31T10:14:35;1.75;;;0.40;;
80748;SDS011;70145;53.746;9.970;2023-07-31T10:17:01;0.73;;;0.45;;
80748;SDS011;70145;53.746;9.970;2023-07-31T10:19:27;0.70;;;0.70;;
80748;SDS011;70145;53.746;9.970;2023-07-31T10:21:55;0.95;;;0.50;;
80748;SDS011;70145;53.746;9.970;2023-07-31T10:24:23;0.70;;;0.45;;
80748;SDS011;70145;53.746;9.970;2023-07-31T10:26:50;0.63;;;0.43;;
80748;SDS011;70145;53.746;9.970;2023-07-31T10:29:17;1.05;;;0.95;;
80748;SDS011;70145;53.746;9.970;2023-07-31T10:31:43;0.60;;;0.28;;
80748;SDS011;70145;53.746;9.970;2023-07-31T10:34:10;0.43;;;0.20;;
80748;SDS011;70145;53.746;9.970;2023-07-31T10:36:35;1.10;;;0.20;;
80748;SDS011;70145;53.746;9.970;2023-07-31T10:39:02;0.90;;;0.43;;
80748;SDS011;70145;53.746;9.970;2023-07-31T10:41:29;0.57;;;0.50;;
80748;SDS011;70145;53.746;9.970;2023-07-31T10:43:59;0.30;;;0.30;;
80748;SDS011;70145;53.746;9.970;2023-07-31T10:46:25;2.42;;;0.50;;
80748;SDS011;70145;53.746;9.970;2023-07-31T10:48:57;0.60;;;0.30;;
80748;SDS011;70145;53.746;9.970;2023-07-31T10:51:24;1.02;;;0.52;;
80748;SDS011;70145;53.746;9.970;2023-07-31T10:54:32;0.60;;;0.30;;
80748;SDS011;70145;53.746;9.970;2023-07-31T10:56:52;3.88;;;0.60;;
80748;SDS011;70145;53.746;9.970;2023-07-31T10:59:18;0.30;;;0.20;;
80748;SDS011;70145;53.746;9.970;2023-07-31T11:01:54;0.60;;;0.32;;
80748;SDS011;70145;53.746;9.970;2023-07-31T11:04:27;0.75;;;0.70;;
80748;SDS011;70145;53.746;9.970;2023-07-31T11:06:56;0.40;;;0.30;;
80748;SDS011;70145;53.746;9.970;2023-07-31T11:09:22;1.02;;;0.20;;
80748;SDS011;70145;53.746;9.970;2023-07-31T11:11:49;0.30;;;0.30;;
80748;SDS011;70145;53.746;9.970;2023-07-31T11:14:16;0.65;;;0.30;;
80748;SDS011;70145;53.746;9.970;2023-07-31T11:16:42;0.80;;;0.32;;
80748;SDS011;70145;53.746;9.970;2023-07-31T11:19:08;1.00;;;0.30;;
80748;SDS011;70145;53.746;9.970;2023-07-31T11:21:33;0.80;;;0.40;;
80748;SDS011;70145;53.746;9.970;2023-07-31T11:23:59;0.52;;;0.38;;
80748;SDS011;70145;53.746;9.970;2023-07-31T11:26:24;0.25;;;0.15;;
80748;SDS011;70145;53.746;9.970;2023-07-31T11:28:50;1.60;;;0.20;;
80748;SDS011;70145;53.746;9.970;2023-07-31T11:31:16;0.52;;;0.43;;
80748;SDS011;70145;53.746;9.970;2023-07-31T11:33:42;0.70;;;0.55;;
80748;SDS011;70145;53.746;9.970;2023-07-31T11:36:18;0.47;;;0.38;;
80748;SDS011;70145;53.746;9.970;2023-07-31T11:38:45;2.22;;;0.30;;
80748;SDS011;70145;53.746;9.970;2023-07-31T11:41:13;0.75;;;0.30;;
80748;SDS011;70145;53.746;9.970;2023-07-31T11:43:39;1.25;;;0.30;;
80748;SDS011;70145;53.746;9.970;2023-07-31T11:46:05;1.50;;;0.30;;
80748;SDS011;70145;53.746;9.970;2023-07-31T11:48:35;0.60;;;0.40;;
80748;SDS011;70145;53.746;9.970;2023-07-31T11:51:02;0.60;;;0.20;;
80748;SDS011;70145;53.746;9.970;2023-07-31T11:56:13;0.90;;;0.50;;
80748;SDS011;70145;53.746;9.970;2023-07-31T11:58:40;0.95;;;0.80;;
80748;SDS011;70145;53.746;9.970;2023-07-31T12:01:08;0.80;;;0.80;;
80748;SDS011;70145;53.746;9.970;2023-07-31T12:03:34;0.82;;;0.43;;
80748;SDS011;70145;53.746;9.970;2023-07-31T12:06:00;0.60;;;0.30;;
80748;SDS011;70145;53.746;9.970;2023-07-31T12:08:25;0.50;;;0.45;;
80748;SDS011;70145;53.746;9.970;2023-07-31T12:10:51;0.88;;;0.30;;
80748;SDS011;70145;53.746;9.970;2023-07-31T12:13:21;1.02;;;0.30;;
80748;SDS011;70145;53.746;9.970;2023-07-31T12:15:54;0.65;;;0.50;;
80748;SDS011;70145;53.746;9.970;2023-07-31T12:18:22;0.90;;;0.20;;
80748;SDS011;70145;53.746;9.970;2023-07-31T12:20:53;0.50;;;0.40;;
80748;SDS011;70145;53.746;9.970;2023-07-31T12:23:21;1.15;;;0.40;;
80748;SDS011;70145;53.746;9.970;2023-07-31T12:26:00;0.85;;;0.45;;
80748;SDS011;70145;53.746;9.970;2023-07-31T12:28:28;1.13;;;0.50;;
80748;SDS011;70145;53.746;9.970;2023-07-31T12:30:56;0.87;;;0.30;;
80748;SDS011;70145;53.746;9.970;2023-07-31T12:35:55;0.50;;;0.35;;
80748;SDS011;70145;53.746;9.970;2023-07-31T12:38:20;0.90;;;0.30;;
80748;SDS011;70145;53.746;9.970;2023-07-31T12:40:45;0.60;;;0.40;;
80748;SDS011;70145;53.746;9.970;2023-07-31T12:43:10;0.93;;;0.20;;
80748;SDS011;70145;53.746;9.970;2023-07-31T12:45:36;0.70;;;0.70;;
80748;SDS011;70145;53.746;9.970;2023-07-31T12:48:01;1.27;;;0.40;;
80748;SDS011;70145;53.746;9.970;2023-07-31T12:52:54;0.82;;;0.68;;
80748;SDS011;70145;53.746;9.970;2023-07-31T12:55:20;1.63;;;0.68;;
80748;SDS011;70145;53.746;9.970;2023-07-31T12:57:46;0.57;;;0.43;;
80748;SDS011;70145;53.746;9.970;2023-07-31T13:00:11;0.47;;;0.30;;
80748;SDS011;70145;53.746;9.970;2023-07-31T13:02:38;0.93;;;0.60;;
80748;SDS011;70145;53.746;9.970;2023-07-31T13:05:03;0.73;;;0.30;;
80748;SDS011;70145;53.746;9.970;2023-07-31T13:07:28;1.58;;;0.40;;
80748;SDS011;70145;53.746;9.970;2023-07-31T13:09:54;0.57;;;0.20;;
80748;SDS011;70145;53.746;9.970;2023-07-31T13:12:19;0.80;;;0.30;;
80748;SDS011;70145;53.746;9.970;2023-07-31T13:14:44;0.70;;;0.35;;
80748;SDS011;70145;53.746;9.970;2023-07-31T13:17:10;0.70;;;0.32;;
80748;SDS011;70145;53.746;9.970;2023-07-31T13:19:35;0.60;;;0.53;;
80748;SDS011;70145;53.746;9.970;2023-07-31T13:22:00;1.70;;;0.30;;
80748;SDS011;70145;53.746;9.970;2023-07-31T13:24:26;0.43;;;0.35;;
80748;SDS011;70145;53.746;9.970;2023-07-31T13:26:51;0.93;;;0.30;;
80748;SDS011;70145;53.746;9.970;2023-07-31T13:29:16;0.77;;;0.50;;
80748;SDS011;70145;53.746;9.970;2023-07-31T13:31:42;0.57;;;0.20;;
80748;SDS011;70145;53.746;9.970;2023-07-31T13:34:07;1.57;;;0.20;;
80748;SDS011;70145;53.746;9.970;2023-07-31T13:36:32;0.40;;;0.20;;
80748;SDS011;70145;53.746;9.970;2023-07-31T13:38:59;1.23;;;0.47;;
80748;SDS011;70145;53.746;9.970;2023-07-31T13:41:24;0.60;;;0.20;;
80748;SDS011;70145;53.746;9.970;2023-07-31T13:43:49;0.80;;;0.30;;
80748;SDS011;70145;53.746;9.970;2023-07-31T13:46:15;0.70;;;0.40;;
80748;SDS011;70145;53.746;9.970;2023-07-31T13:48:40;0.77;;;0.30;;
80748;SDS011;70145;53.746;9.970;2023-07-31T13:51:05;1.38;;;0.70;;
80748;SDS011;70145;53.746;9.970;2023-07-31T13:53:31;1.65;;;0.30;;
80748;SDS011;70145;53.746;9.970;2023-07-31T13:55:56;1.38;;;0.30;;
80748;SDS011;70145;53.746;9.970;2023-07-31T13:58:21;0.82;;;0.50;;
80748;SDS011;70145;53.746;9.970;2023-07-31T14:00:47;2.00;;;1.90;;
80748;SDS011;70145;53.746;9.970;2023-07-31T14:03:12;0.93;;;0.65;;
80748;SDS011;70145;53.746;9.970;2023-07-31T14:05:37;0.67;;;0.40;;
80748;SDS011;70145;53.746;9.970;2023-07-31T14:08:03;0.73;;;0.50;;
80748;SDS011;70145;53.746;9.970;2023-07-31T14:10:28;0.52;;;0.30;;
80748;SDS011;70145;53.746;9.970;2023-07-31T14:12:54;1.48;;;1.38;;
80748;SDS011;70145;53.746;9.970;2023-07-31T14:15:19;1.10;;;0.40;;
80748;SDS011;70145;53.746;9.970;2023-07-31T14:17:44;0.57;;;0.57;;
80748;SDS011;70145;53.746;9.970;2023-07-31T14:20:10;1.23;;;0.33;;
80748;SDS011;70145;53.746;9.970;2023-07-31T14:22:36;1.27;;;0.65;;
80748;SDS011;70145;53.746;9.970;2023-07-31T14:25:02;0.80;;;0.30;;
80748;SDS011;70145;53.746;9.970;2023-07-31T14:27:28;1.15;;;1.02;;
80748;SDS011;70145;53.746;9.970;2023-07-31T14:29:53;1.57;;;0.90;;
80748;SDS011;70145;53.746;9.970;2023-07-31T14:32:18;0.50;;;0.30;;
80748;SDS011;70145;53.746;9.970;2023-07-31T14:34:44;1.13;;;0.50;;
80748;SDS011;70145;53.746;9.970;2023-07-31T14:37:09;0.57;;;0.17;;
80748;SDS011;70145;53.746;9.970;2023-07-31T14:39:34;0.60;;;0.30;;
80748;SDS011;70145;53.746;9.970;2023-07-31T14:42:00;0.60;;;0.30;;
80748;SDS011;70145;53.746;9.970;2023-07-31T14:44:25;2.38;;;0.40;;
80748;SDS011;70145;53.746;9.970;2023-07-31T14:46:50;0.65;;;0.20;;
80748;SDS011;70145;53.746;9.970;2023-07-31T14:49:16;0.70;;;0.70;;
80748;SDS011;70145;53.746;9.970;2023-07-31T14:51:41;0.75;;;0.75;;
80748;SDS011;70145;53.746;9.970;2023-07-31T14:54:07;0.17;;;0.07;;
80748;SDS011;70145;53.746;9.970;2023-07-31T14:56:32;0.30;;;0.10;;
80748;SDS011;70145;53.746;9.970;2023-07-31T14:58:57;0.50;;;0.20;;
80748;SDS011;70145;53.746;9.970;2023-07-31T15:01:23;0.40;;;0.20;;